Time;durP1;ratioP1;P1;durP2;ratioP2;P2;SDS_P1;SDS_P2;PMS_P1;PMS_P2;Temp;Humidity;BMP_temperature;BMP_pressure;BME280_temperature;BME280_humidity;BME280_pressure;Samples;Min_cycle;Max_cycle;Signal;HPM_P1;HPM_P2
2021/06/04 00:00:38;;;;;;;5.33;4.93;;;;;;;17.88;78.70;101277.66;5101941;28;20219;-76
2021/06/04 00:03:07;;;;;;;6.27;5.67;;;;;;;17.87;78.76;101271.41;5102556;28;20310;-76
2021/06/04 00:05:36;;;;;;;5.30;4.90;;;;;;;17.88;78.89;101266.88;5108032;28;20210;-77
2021/06/04 00:08:03;;;;;;;5.77;5.27;;;;;;;17.89;78.94;101265.88;5098807;28;20211;-75
2021/06/04 00:10:32;;;;;;;5.17;4.67;;;;;;;17.89;78.62;101274.81;5104799;28;20210;-77
2021/06/04 00:13:13;;;;;;;5.80;5.30;;;;;;;17.90;78.82;101275.69;5100469;28;20220;-77
2021/06/04 00:15:40;;;;;;;6.27;5.67;;;;;;;17.91;79.08;101266.63;5100876;28;20277;-77
2021/06/04 00:18:07;;;;;;;6.43;5.37;;;;;;;17.93;79.13;101268.16;5096129;28;20667;-76
2021/06/04 00:20:33;;;;;;;5.57;5.13;;;;;;;17.94;78.95;101267.19;5100441;28;20210;-76
2021/06/04 00:22:59;;;;;;;5.47;5.07;;;;;;;17.94;78.98;101267.19;5108157;28;20241;-77
2021/06/04 00:25:25;;;;;;;6.03;5.07;;;;;;;17.89;78.88;101255.09;5106518;28;20200;-76
2021/06/04 00:27:51;;;;;;;6.03;5.53;;;;;;;17.88;79.04;101261.47;5107089;28;20210;-76
2021/06/04 00:30:18;;;;;;;5.30;4.80;;;;;;;17.86;78.91;101264.31;5107610;27;20207;-76
2021/06/04 00:32:46;;;;;;;6.47;5.87;;;;;;;17.85;79.15;101267.97;5099940;28;20219;-77
2021/06/04 00:35:12;;;;;;;6.13;5.63;;;;;;;17.84;79.27;101270.78;5105465;28;20866;-76
2021/06/04 00:37:39;;;;;;;5.77;5.27;;;;;;;17.84;79.45;101274.34;5103011;28;20207;-75
2021/06/04 00:40:07;;;;;;;5.03;4.60;;;;;;;17.84;79.42;101262.72;5100824;28;20233;-76
2021/06/04 00:42:35;;;;;;;5.07;4.67;;;;;;;17.82;79.35;101270.94;5094092;28;20217;-76
2021/06/04 00:45:04;;;;;;;5.23;4.80;;;;;;;17.79;79.37;101268.47;5103266;28;20618;-76
2021/06/04 00:47:30;;;;;;;5.77;5.27;;;;;;;17.75;79.36;101267.00;5110488;28;20206;-75
2021/06/04 00:49:58;;;;;;;6.53;5.93;;;;;;;17.71;79.61;101262.91;5108163;28;20212;-76
2021/06/04 00:52:28;;;;;;;5.33;4.80;;;;;;;17.70;79.73;101271.97;5107068;28;20226;-75
2021/06/04 00:54:56;;;;;;;6.87;5.60;;;;;;;17.69;79.79;101264.84;5109820;28;20199;-75
2021/06/04 00:57:23;;;;;;;5.50;5.00;;;;;;;17.69;79.85;101271.09;5107505;28;20547;-76
2021/06/04 00:59:49;;;;;;;5.13;4.63;;;;;;;17.64;79.73;101267.06;5108450;27;20273;-76
2021/06/04 01:02:18;;;;;;;5.47;4.47;;;;;;;17.60;79.69;101257.50;5112338;27;20227;-76
2021/06/04 01:04:45;;;;;;;5.10;4.70;;;;;;;17.55;79.72;101251.66;5105944;28;20272;-76
2021/06/04 01:07:20;;;;;;;4.90;4.50;;;;;;;17.52;79.81;101252.75;5109513;28;20565;-76
2021/06/04 01:10:02;;;;;;;4.73;4.33;;;;;;;17.51;79.90;101250.19;5111185;28;20203;-76
2021/06/04 01:12:45;;;;;;;6.00;5.50;;;;;;;17.49;79.85;101246.75;5103582;28;20316;-76
2021/06/04 01:15:18;;;;;;;4.83;4.43;;;;;;;17.48;80.06;101242.38;5094013;28;20227;-76
2021/06/04 01:17:50;;;;;;;5.93;5.27;;;;;;;17.47;80.19;101244.19;5094958;28;20194;-76
2021/06/04 01:20:20;;;;;;;5.00;4.60;;;;;;;17.51;80.30;101242.13;5093301;28;20694;-76
2021/06/04 01:23:08;;;;;;;5.70;4.90;;;;;;;17.52;80.28;101246.53;5102601;28;20230;-76
2021/06/04 01:25:48;;;;;;;6.83;6.13;;;;;;;17.54;80.43;101241.88;5105267;28;20201;-76
2021/06/04 01:28:20;;;;;;;6.27;5.77;;;;;;;17.55;80.56;101236.34;5105468;28;20213;-76
2021/06/04 01:30:50;;;;;;;5.33;4.83;;;;;;;17.57;80.63;101238.88;5105681;27;20812;-77
2021/06/04 01:33:24;;;;;;;6.00;5.37;;;;;;;17.59;80.46;101242.31;5124733;27;20631;-76
2021/06/04 01:35:53;;;;;;;6.83;6.23;;;;;;;17.59;80.42;101236.94;5121636;27;20217;-76
2021/06/04 01:38:29;;;;;;;6.33;5.73;;;;;;;17.60;80.49;101239.50;5106247;28;20570;-76
2021/06/04 01:41:00;;;;;;;5.73;5.13;;;;;;;17.61;80.55;101238.50;5110917;27;20197;-76
2021/06/04 01:43:31;;;;;;;5.40;4.57;;;;;;;17.61;80.33;101234.97;5111751;27;21026;-76
2021/06/04 01:46:01;;;;;;;4.70;4.30;;;;;;;17.59;80.51;101231.53;5098381;27;20545;-76
2021/06/04 01:48:33;;;;;;;6.20;5.60;;;;;;;17.57;80.24;101245.13;5101597;28;20205;-76
2021/06/04 01:51:02;;;;;;;6.30;5.80;;;;;;;17.56;80.27;101240.72;5099425;28;20643;-77
2021/06/04 01:53:32;;;;;;;7.57;5.80;;;;;;;17.53;80.29;101238.31;5098833;28;20683;-77
2021/06/04 01:56:08;;;;;;;6.47;5.97;;;;;;;17.50;80.27;101248.47;5093409;28;20219;-75
2021/06/04 01:58:38;;;;;;;8.07;7.33;;;;;;;17.48;80.50;101245.91;5110189;28;20203;-75
2021/06/04 02:01:10;;;;;;;7.73;7.00;;;;;;;17.47;80.54;101244.19;5093405;28;20199;-75
2021/06/04 02:03:37;;;;;;;6.93;6.33;;;;;;;17.46;80.55;101241.63;5107494;28;20285;-75
2021/06/04 02:06:03;;;;;;;7.23;6.53;;;;;;;17.44;80.62;101240.91;5104906;28;20209;-75
2021/06/04 02:08:32;;;;;;;6.90;6.20;;;;;;;17.44;80.44;101240.91;5103631;28;20205;-76
2021/06/04 02:11:01;;;;;;;7.10;6.07;;;;;;;17.42;80.58;101235.63;5106199;28;20205;-75
2021/06/04 02:13:27;;;;;;;7.77;6.97;;;;;;;17.43;80.66;101239.19;5104620;28;20233;-76
2021/06/04 02:16:06;;;;;;;7.70;6.90;;;;;;;17.42;80.09;101246.41;5100842;28;20594;-76
2021/06/04 02:18:42;;;;;;;6.70;6.07;;;;;;;17.42;80.37;101242.84;5093859;28;20200;-77
2021/06/04 02:21:14;;;;;;;7.73;7.03;;;;;;;17.42;80.56;101242.84;5103414;28;20567;-77
2021/06/04 02:23:47;;;;;;;6.00;5.50;;;;;;;17.42;80.43;101243.72;5102073;28;20234;-77
2021/06/04 02:26:18;;;;;;;6.37;5.87;;;;;;;17.42;80.11;101246.41;5099601;28;20198;-75
2021/06/04 02:28:51;;;;;;;6.00;5.50;;;;;;;17.42;80.30;101243.72;5104985;28;20227;-75
2021/06/04 02:31:22;;;;;;;6.20;5.63;;;;;;;17.42;80.43;101245.56;5092338;28;20205;-75
2021/06/04 02:33:53;;;;;;;5.77;5.37;;;;;;;17.42;80.14;101240.16;5101104;28;20224;-75
2021/06/04 02:36:24;;;;;;;6.03;5.57;;;;;;;17.39;80.34;101241.28;5098476;28;20218;-75
2021/06/04 02:39:00;;;;;;;6.07;5.47;;;;;;;17.39;80.21;101246.66;5102963;28;20958;-75
2021/06/04 02:41:31;;;;;;;6.10;5.40;;;;;;;17.34;79.76;101248.91;5104408;28;20256;-75
2021/06/04 02:44:04;;;;;;;6.90;6.03;;;;;;;17.29;80.12;101246.56;5092647;28;20202;-75
2021/06/04 02:46:34;;;;;;;6.40;5.90;;;;;;;17.24;80.08;101251.47;5101817;28;20671;-75
2021/06/04 02:49:02;;;;;;;6.53;5.73;;;;;;;17.21;79.96;101238.25;5105614;28;20201;-75
2021/06/04 02:51:31;;;;;;;6.30;5.70;;;;;;;17.18;80.14;101246.59;5102648;28;20206;-75
2021/06/04 02:54:00;;;;;;;6.73;5.50;;;;;;;17.13;79.91;101250.63;5099457;28;20200;-76
2021/06/04 02:56:30;;;;;;;5.90;5.33;;;;;;;17.05;79.74;101251.25;5092698;28;20715;-75
2021/06/04 02:59:00;;;;;;;5.63;5.10;;;;;;;16.99;79.75;101249.06;5092663;28;20650;-76
2021/06/04 03:01:28;;;;;;;7.33;4.70;;;;;;;16.93;79.78;101245.03;5092417;28;20210;-76
2021/06/04 03:03:59;;;;;;;6.40;5.27;;;;;;;16.93;80.18;101250.41;5092378;28;20205;-75
2021/06/04 03:06:29;;;;;;;5.67;5.17;;;;;;;16.92;80.32;101242.47;5092247;28;20192;-75
2021/06/04 03:09:00;;;;;;;5.90;5.40;;;;;;;16.93;80.37;101250.41;5092295;28;20208;-75
2021/06/04 03:11:27;;;;;;;5.90;5.40;;;;;;;16.95;80.54;101243.06;5092675;28;20201;-75
2021/06/04 03:13:54;;;;;;;6.63;6.10;;;;;;;16.97;80.48;101249.19;5092454;28;20209;-75
2021/06/04 03:16:24;;;;;;;7.10;6.40;;;;;;;16.98;80.66;101248.22;5092341;28;20229;-75
2021/06/04 03:18:54;;;;;;;7.00;6.30;;;;;;;17.01;80.77;101247.13;5092283;28;20204;-75
2021/06/04 03:21:27;;;;;;;7.53;6.30;;;;;;;17.02;80.83;101256.88;5092349;28;20212;-75
2021/06/04 03:23:53;;;;;;;6.40;5.90;;;;;;;17.02;80.94;101251.50;5092171;28;20209;-75
2021/06/04 03:26:23;;;;;;;5.83;5.27;;;;;;;17.04;80.80;101254.06;5091967;28;20205;-75
2021/06/04 03:28:52;;;;;;;6.40;5.90;;;;;;;17.04;80.72;101249.53;5092127;28;20189;-75
2021/06/04 03:31:21;;;;;;;6.40;5.80;;;;;;;17.02;80.64;101249.66;5100231;28;20210;-75
2021/06/04 03:33:48;;;;;;;6.10;5.60;;;;;;;16.97;80.48;101246.50;5101602;28;20613;-75
2021/06/04 03:36:17;;;;;;;10.47;5.40;;;;;;;16.92;80.46;101261.28;5091711;28;20225;-75
2021/06/04 03:38:45;;;;;;;6.30;5.70;;;;;;;16.86;80.37;101261.78;5092032;28;20579;-75
2021/06/04 03:41:12;;;;;;;7.70;6.23;;;;;;;16.83;80.64;101262.06;5092120;28;20206;-75
2021/06/04 03:43:39;;;;;;;6.50;5.90;;;;;;;16.82;80.80;101257.66;5097781;28;20276;-75
2021/06/04 03:46:05;;;;;;;6.10;5.67;;;;;;;16.83;80.81;101259.38;5100481;28;20204;-75
2021/06/04 03:48:35;;;;;;;6.20;5.60;;;;;;;16.84;80.87;101261.06;5098312;28;20251;-75
2021/06/04 03:51:06;;;;;;;7.77;7.07;;;;;;;16.85;81.10;101258.22;5099692;28;20350;-76
2021/06/04 03:53:33;;;;;;;7.43;6.73;;;;;;;16.86;80.90;101262.63;5124508;27;20269;-76
2021/06/04 03:55:59;;;;;;;6.80;6.20;;;;;;;16.86;80.97;101261.78;5111527;28;20229;-76
2021/06/04 03:58:26;;;;;;;8.03;7.33;;;;;;;16.88;80.89;101268.75;5105019;28;20213;-75
2021/06/04 04:00:55;;;;;;;9.50;7.17;;;;;;;16.88;81.21;101259.81;5099717;28;20197;-76
2021/06/04 04:03:25;;;;;;;7.93;6.70;;;;;;;16.90;81.23;101269.50;5115986;28;20221;-76
2021/06/04 04:05:53;;;;;;;7.10;6.57;;;;;;;16.90;81.00;101266.81;5116354;28;20205;-76
2021/06/04 04:08:24;;;;;;;7.20;6.60;;;;;;;16.92;81.01;101267.53;5096202;28;20205;-76
2021/06/04 04:10:51;;;;;;;7.83;7.13;;;;;;;16.94;81.12;101270.97;5106517;28;20212;-76
2021/06/04 04:13:19;;;;;;;7.13;6.43;;;;;;;16.95;81.14;101271.81;5105792;28;20647;-75
2021/06/04 04:15:46;;;;;;;6.50;5.90;;;;;;;16.96;80.96;101266.31;5095496;28;20229;-76
2021/06/04 04:18:13;;;;;;;7.40;6.70;;;;;;;16.97;81.02;101270.72;5101006;28;20268;-75
2021/06/04 04:20:42;;;;;;;7.57;6.90;;;;;;;16.99;81.18;101270.59;5096421;28;20202;-76
2021/06/04 04:23:13;;;;;;;7.07;6.57;;;;;;;17.00;81.14;101272.31;5095440;28;20230;-76
2021/06/04 04:25:42;;;;;;;7.50;6.80;;;;;;;16.99;80.90;101263.38;5095281;28;20193;-76
2021/06/04 04:28:10;;;;;;;7.33;6.63;;;;;;;16.98;80.82;101272.44;5095510;28;20209;-76
2021/06/04 04:30:36;;;;;;;8.27;7.50;;;;;;;16.97;80.96;101273.41;5105484;28;20577;-76
2021/06/04 04:33:03;;;;;;;7.93;6.83;;;;;;;16.95;80.89;101277.19;5096609;28;20225;-76
2021/06/04 04:35:32;;;;;;;8.50;7.70;;;;;;;16.94;81.11;101278.19;5111432;27;20206;-76
2021/06/04 04:37:58;;;;;;;8.63;7.93;;;;;;;16.94;81.21;101288.94;5098569;27;20203;-75
2021/06/04 04:40:34;;;;;;;8.80;8.00;;;;;;;16.93;81.41;101277.31;5100109;28;20209;-76
2021/06/04 04:43:00;;;;;;;9.20;8.40;;;;;;;16.95;81.74;101283.44;5104072;27;20267;-76
2021/06/04 04:45:28;;;;;;;8.80;7.57;;;;;;;16.97;81.85;101284.19;5107922;28;20202;-76
2021/06/04 04:47:54;;;;;;;9.47;8.50;;;;;;;17.01;82.09;101279.41;5121297;27;20326;-76
2021/06/04 04:50:22;;;;;;;8.77;8.03;;;;;;;17.04;81.87;101275.59;5108260;28;20212;-76
2021/06/04 04:52:48;;;;;;;8.67;7.77;;;;;;;17.07;81.84;101280.72;5103607;28;20269;-76
2021/06/04 04:55:16;;;;;;;9.33;8.30;;;;;;;17.10;82.06;101281.34;5097110;28;20240;-75
2021/06/04 04:57:44;;;;;;;9.03;8.17;;;;;;;17.15;82.08;101276.47;5095402;28;20225;-76
2021/06/04 05:00:15;;;;;;;9.93;8.87;;;;;;;17.21;82.08;101278.63;5094385;28;20206;-75
2021/06/04 05:02:41;;;;;;;9.20;8.27;;;;;;;17.26;82.16;101279.13;5094414;28;20223;-76
2021/06/04 05:05:09;;;;;;;9.10;8.30;;;;;;;17.31;82.23;101282.31;5094689;28;20275;-76
2021/06/04 05:07:35;;;;;;;9.50;8.60;;;;;;;17.35;82.34;101278.38;5094688;28;20206;-76
2021/06/04 05:10:06;;;;;;;9.90;8.87;;;;;;;17.43;82.38;101274.19;5094401;28;20676;-76
2021/06/04 05:12:34;;;;;;;9.20;8.50;;;;;;;17.48;82.52;101274.69;5094474;28;20721;-75
2021/06/04 05:15:03;;;;;;;15.70;8.97;;;;;;;17.54;82.17;101269.66;5094299;28;20261;-76
2021/06/04 05:17:29;;;;;;;9.63;8.83;;;;;;;17.61;82.30;101269.97;5095997;28;20222;-76
2021/06/04 05:19:57;;;;;;;8.97;8.27;;;;;;;17.69;82.22;101262.16;5100835;28;20249;-76
2021/06/04 05:22:23;;;;;;;9.07;8.37;;;;;;;17.78;82.12;101269.47;5101437;28;20253;-76
2021/06/04 05:24:49;;;;;;;8.47;7.60;;;;;;;17.88;81.98;101265.03;5095409;28;20217;-76
2021/06/04 05:27:15;;;;;;;8.50;7.80;;;;;;;17.98;81.68;101270.47;5098920;28;20576;-76
2021/06/04 05:29:41;;;;;;;8.20;7.50;;;;;;;18.07;81.29;101263.47;5099636;28;20217;-76
2021/06/04 05:32:09;;;;;;;7.80;7.20;;;;;;;18.14;81.19;101260.09;5094106;28;20228;-76
2021/06/04 05:34:36;;;;;;;8.20;7.20;;;;;;;18.20;80.73;101259.59;5097705;28;20218;-76
2021/06/04 05:37:03;;;;;;;8.43;7.63;;;;;;;18.27;80.55;101266.16;5097180;28;20273;-76
2021/06/04 05:39:29;;;;;;;8.40;7.60;;;;;;;18.31;80.27;101267.59;5109486;28;20205;-76
2021/06/04 05:42:01;;;;;;;9.00;8.20;;;;;;;18.36;80.19;101267.22;5098782;28;20689;-76
2021/06/04 05:44:29;;;;;;;8.43;7.27;;;;;;;18.43;79.97;101271.09;5108135;28;20300;-76
2021/06/04 05:46:58;;;;;;;7.47;6.77;;;;;;;18.50;79.75;101277.66;5093745;28;20209;-76
2021/06/04 05:49:26;;;;;;;7.70;6.93;;;;;;;18.58;79.72;101277.88;5099604;28;20203;-76
2021/06/04 05:51:54;;;;;;;7.60;6.80;;;;;;;18.65;79.60;101275.50;5105235;28;20223;-77
2021/06/04 05:54:21;;;;;;;6.80;6.20;;;;;;;18.71;79.36;101265.03;5099513;28;20205;-76
2021/06/04 05:56:47;;;;;;;7.77;6.23;;;;;;;18.80;78.88;101267.94;5105190;28;20235;-76
2021/06/04 05:59:15;;;;;;;7.30;6.60;;;;;;;18.89;78.65;101272.50;5106598;28;20220;-76
2021/06/04 06:01:42;;;;;;;7.80;5.90;;;;;;;19.04;78.37;101277.38;5099721;28;20202;-76
2021/06/04 06:04:08;;;;;;;6.57;5.97;;;;;;;19.18;78.05;101278.84;5095054;27;20667;-76
2021/06/04 06:06:36;;;;;;;6.30;5.67;;;;;;;19.33;77.44;101285.59;5104030;28;20277;-76
2021/06/04 06:09:03;;;;;;;7.47;6.40;;;;;;;19.42;77.19;101286.59;5095854;28;20247;-76
2021/06/04 06:11:29;;;;;;;6.03;5.47;;;;;;;19.51;76.56;101287.66;5093223;28;20203;-76
2021/06/04 06:13:58;;;;;;;7.33;6.70;;;;;;;19.60;76.25;101294.91;5096501;28;20201;-76
2021/06/04 06:16:27;;;;;;;8.10;7.40;;;;;;;19.69;76.05;101294.09;5102299;28;20231;-76
2021/06/04 06:18:53;;;;;;;8.50;7.70;;;;;;;19.77;75.75;101295.09;5097351;28;20602;-76
2021/06/04 06:21:19;;;;;;;8.43;7.70;;;;;;;19.88;75.82;101295.97;5098555;28;20210;-76
2021/06/04 06:23:46;;;;;;;8.33;7.63;;;;;;;19.98;75.40;101297.66;5098118;28;20249;-76
2021/06/04 06:26:19;;;;;;;7.63;7.03;;;;;;;20.10;75.39;101299.22;5098591;28;20218;-76
2021/06/04 06:28:46;;;;;;;9.50;7.40;;;;;;;20.28;75.32;101301.19;5092706;28;20217;-77
2021/06/04 06:31:16;;;;;;;7.57;6.90;;;;;;;20.39;74.54;101301.09;5092500;28;20219;-76
2021/06/04 06:33:43;;;;;;;6.87;6.30;;;;;;;20.49;73.51;101299.22;5097260;28;20241;-76
2021/06/04 06:36:12;;;;;;;6.23;5.73;;;;;;;20.57;72.45;101304.75;5113293;27;20223;-75
2021/06/04 06:38:40;;;;;;;5.93;5.43;;;;;;;20.64;71.29;101305.84;5097141;27;20265;-76
2021/06/04 06:41:10;;;;;;;5.70;5.13;;;;;;;20.73;70.95;101310.41;5101528;28;20250;-76
2021/06/04 06:43:39;;;;;;;5.33;4.83;;;;;;;20.85;69.97;101305.66;5097058;28;20395;-76
2021/06/04 06:46:09;;;;;;;4.60;4.20;;;;;;;20.92;68.83;101304.09;5097304;28;20206;-77
2021/06/04 06:48:36;;;;;;;5.63;5.10;;;;;;;21.03;68.09;101297.63;5101571;28;20205;-76
2021/06/04 06:51:03;;;;;;;5.07;4.70;;;;;;;21.15;67.74;101308.09;5092916;28;20207;-77
2021/06/04 06:53:29;;;;;;;4.83;4.43;;;;;;;21.28;66.95;101301.53;5102096;28;20220;-76
2021/06/04 06:55:57;;;;;;;5.30;4.90;;;;;;;21.39;66.26;101313.00;5098498;28;20737;-76
2021/06/04 06:58:27;;;;;;;5.53;5.07;;;;;;;21.53;66.02;101308.94;5108203;28;20201;-76
2021/06/04 07:00:54;;;;;;;5.77;5.17;;;;;;;21.70;65.64;101308.09;5100132;28;20788;-76
2021/06/04 07:03:23;;;;;;;5.60;5.10;;;;;;;21.89;65.64;101308.97;5092756;28;20219;-76
2021/06/04 07:05:50;;;;;;;6.30;5.70;;;;;;;22.05;65.22;101307.31;5116541;27;20225;-76
2021/06/04 07:08:16;;;;;;;6.40;5.72;;;;;;;22.20;64.98;101309.50;5107980;27;20205;-76
2021/06/04 07:10:42;;;;;;;5.35;4.90;;;;;;;22.35;64.70;101306.06;5112452;28;20215;-76
2021/06/04 07:13:10;;;;;;;5.32;4.90;;;;;;;22.49;64.10;101310.06;5102452;28;20223;-76
2021/06/04 07:15:39;;;;;;;7.00;5.13;;;;;;;22.59;63.66;101308.06;5092250;28;20213;-76
2021/06/04 07:18:06;;;;;;;5.38;4.80;;;;;;;22.68;63.61;101311.72;5096083;28;20200;-76
2021/06/04 07:20:35;;;;;;;5.47;5.05;;;;;;;22.80;63.58;101319.47;5099355;28;20202;-76
2021/06/04 07:23:03;;;;;;;5.57;5.18;;;;;;;22.97;63.30;101314.13;5102971;28;20622;-77
2021/06/04 07:25:31;;;;;;;5.43;4.95;;;;;;;23.08;62.88;101316.56;5112502;28;20207;-76
2021/06/04 07:27:57;;;;;;;5.35;4.95;;;;;;;23.22;62.67;101318.69;5112305;28;20668;-77
2021/06/04 07:30:28;;;;;;;6.80;6.05;;;;;;;23.31;62.47;101320.41;5097379;28;20224;-76
2021/06/04 07:32:56;;;;;;;6.55;5.82;;;;;;;23.40;62.00;101326.72;5099084;28;20226;-76
2021/06/04 07:35:25;;;;;;;6.05;5.47;;;;;;;23.45;62.49;101321.66;5108500;28;20254;-76
2021/06/04 07:37:51;;;;;;;6.00;5.50;;;;;;;23.55;62.23;101325.13;5104411;28;20219;-76
2021/06/04 07:40:20;;;;;;;7.15;6.28;;;;;;;23.65;62.43;101320.38;5095534;28;20211;-76
2021/06/04 07:42:47;;;;;;;6.35;5.72;;;;;;;23.77;62.34;101323.66;5110292;28;20243;-77
2021/06/04 07:45:13;;;;;;;6.97;6.43;;;;;;;23.85;61.60;101320.94;5112097;28;20207;-77
2021/06/04 07:47:40;;;;;;;6.57;5.93;;;;;;;23.93;61.83;101318.25;5110456;28;20199;-76
2021/06/04 07:50:10;;;;;;;6.53;5.93;;;;;;;24.04;61.66;101319.78;5102321;28;20214;-76
2021/06/04 07:52:37;;;;;;;7.95;5.90;;;;;;;24.19;61.36;101326.25;5106173;28;20219;-77
2021/06/04 07:55:05;;;;;;;6.20;5.70;;;;;;;24.28;60.66;101328.00;5091965;28;20257;-76
2021/06/04 07:57:31;;;;;;;6.43;5.82;;;;;;;24.34;60.77;101327.34;5092030;28;20232;-77
2021/06/04 07:59:57;;;;;;;7.22;6.30;;;;;;;24.43;60.42;101326.28;5092083;28;20234;-76
2021/06/04 08:02:23;;;;;;;7.05;6.35;;;;;;;24.51;60.15;101328.19;5104249;28;20223;-76
2021/06/04 08:04:51;;;;;;;6.38;5.88;;;;;;;24.60;60.49;101329.00;5093287;28;20255;-76
2021/06/04 08:07:19;;;;;;;6.50;5.90;;;;;;;24.70;60.49;101322.38;5092154;28;20274;-76
2021/06/04 08:09:45;;;;;;;6.60;6.03;;;;;;;24.83;60.53;101322.69;5092035;28;20204;-77
2021/06/04 08:12:15;;;;;;;7.20;6.68;;;;;;;24.96;60.10;101318.59;5092108;28;20590;-77
2021/06/04 08:14:41;;;;;;;6.82;6.28;;;;;;;25.04;60.03;101318.56;5091650;28;20211;-76
2021/06/04 08:17:08;;;;;;;6.45;5.85;;;;;;;25.12;59.88;101313.09;5092010;28;20228;-76
2021/06/04 08:19:35;;;;;;;6.22;5.72;;;;;;;25.23;59.08;101323.63;5105933;28;20286;-76
2021/06/04 08:22:06;;;;;;;7.20;6.30;;;;;;;25.33;58.87;101315.22;5106129;28;20575;-77
2021/06/04 08:24:36;;;;;;;5.88;5.38;;;;;;;25.45;59.23;101320.09;5092124;28;20191;-76
2021/06/04 08:27:04;;;;;;;5.97;5.50;;;;;;;25.58;59.00;101312.22;5091839;28;20203;-77
2021/06/04 08:29:31;;;;;;;5.90;5.30;;;;;;;25.73;58.52;101311.47;5105948;28;20667;-77
2021/06/04 08:31:57;;;;;;;6.45;5.60;;;;;;;25.86;58.05;101314.44;5098102;28;20224;-77
2021/06/04 08:34:24;;;;;;;5.93;5.43;;;;;;;25.97;57.72;101310.47;5095748;28;20586;-77
2021/06/04 08:36:50;;;;;;;5.95;5.35;;;;;;;26.10;57.38;101300.63;5095380;28;20224;-77
2021/06/04 08:39:22;;;;;;;5.90;5.30;;;;;;;26.22;57.04;101298.31;5103595;28;20207;-76
2021/06/04 08:41:57;;;;;;;6.25;5.63;;;;;;;26.34;56.44;101302.31;5115992;28;20192;-76
2021/06/04 08:44:37;;;;;;;6.20;5.70;;;;;;;26.47;55.69;101299.84;5116370;28;20191;-77
2021/06/04 08:47:14;;;;;;;6.50;4.80;;;;;;;26.52;55.54;101299.25;5116205;28;20179;-77
2021/06/04 08:49:58;;;;;;;4.80;4.40;;;;;;;26.61;55.06;101299.00;5116253;28;20239;-77
2021/06/04 08:52:32;;;;;;;4.97;4.68;;;;;;;26.65;54.33;101302.22;5116196;28;20230;-77
2021/06/04 08:55:02;;;;;;;4.82;4.40;;;;;;;26.71;53.56;101297.88;5116019;28;20595;-76
2021/06/04 08:57:49;;;;;;;4.97;4.47;;;;;;;26.79;53.44;101301.41;5115981;28;20212;-77
2021/06/04 09:00:19;;;;;;;4.68;4.00;;;;;;;26.89;52.98;101296.47;5115530;28;20207;-77
2021/06/04 09:02:48;;;;;;;4.45;4.05;;;;;;;26.97;52.18;101292.84;5115772;28;20230;-77
2021/06/04 09:05:17;;;;;;;3.83;3.53;;;;;;;27.02;51.23;101298.63;5116496;28;20203;-77
2021/06/04 09:07:46;;;;;;;3.58;3.28;;;;;;;27.07;50.56;101303.50;5112716;28;20204;-77
2021/06/04 09:10:24;;;;;;;4.22;3.38;;;;;;;27.10;50.03;101300.38;5095647;28;20575;-77
2021/06/04 09:12:56;;;;;;;6.25;3.70;;;;;;;27.14;49.92;101308.03;5094304;28;20223;-76
2021/06/04 09:15:28;;;;;;;4.18;3.83;;;;;;;27.17;49.31;101304.91;5102145;28;20187;-76
2021/06/04 09:18:00;;;;;;;4.13;3.72;;;;;;;27.21;49.62;101310.88;5114706;28;20240;-75
2021/06/04 09:20:32;;;;;;;4.55;4.00;;;;;;;27.32;50.03;101293.97;5114758;28;20197;-76
2021/06/04 09:23:02;;;;;;;4.25;3.90;;;;;;;27.48;50.19;101301.94;5114720;28;20234;-76
2021/06/04 09:25:30;;;;;;;5.28;4.78;;;;;;;27.59;49.27;101301.47;5114408;28;20274;-76
2021/06/04 09:28:32;;;;;;;5.32;4.68;;;;;;;27.63;48.94;101299.22;5114545;28;20292;-76
2021/06/04 09:31:18;;;;;;;4.25;3.92;;;;;;;27.69;49.08;101301.19;5097159;27;20219;-76
2021/06/04 09:33:45;;;;;;;4.78;4.38;;;;;;;27.85;49.31;101305.56;5093963;28;20598;-75
2021/06/04 09:36:14;;;;;;;3.78;3.53;;;;;;;27.96;49.33;101302.28;5093971;28;20214;-76
2021/06/04 09:38:45;;;;;;;4.18;3.80;;;;;;;28.09;48.35;101305.19;5093951;28;20211;-75
2021/06/04 09:41:28;;;;;;;4.03;3.60;;;;;;;28.19;47.23;101304.84;5092750;28;20185;-76
2021/06/04 09:44:06;;;;;;;3.85;3.47;;;;;;;28.18;46.33;101295.78;5093898;28;20211;-76
2021/06/04 09:46:39;;;;;;;3.88;3.20;;;;;;;28.16;45.69;101302.50;5093873;28;20566;-75
2021/06/04 09:49:05;;;;;;;4.10;3.80;;;;;;;28.17;45.69;101299.56;5093748;28;20184;-76
2021/06/04 09:51:33;;;;;;;3.65;3.35;;;;;;;28.21;45.29;101294.59;5093619;28;20210;-75
2021/06/04 09:54:15;;;;;;;4.30;3.90;;;;;;;28.22;45.25;101297.13;5093555;28;20568;-76
2021/06/04 09:56:42;;;;;;;3.30;3.03;;;;;;;28.23;43.92;101298.81;5093299;28;20208;-75
2021/06/04 09:59:13;;;;;;;3.83;3.55;;;;;;;28.22;43.63;101299.88;5093300;28;20208;-75
2021/06/04 10:01:47;;;;;;;4.30;3.90;;;;;;;28.28;44.01;101299.09;5093497;28;20191;-76
2021/06/04 10:04:16;;;;;;;3.75;3.45;;;;;;;28.38;43.92;101297.88;5093621;28;20436;-76
2021/06/04 10:06:45;;;;;;;3.65;3.28;;;;;;;28.44;43.96;101292.47;5093566;28;20202;-76
2021/06/04 10:09:22;;;;;;;3.50;3.22;;;;;;;28.59;43.95;101295.13;5106085;28;20248;-76
2021/06/04 10:12:01;;;;;;;3.90;3.60;;;;;;;28.71;43.11;101288.03;5107554;28;20195;-77
2021/06/04 10:14:43;;;;;;;3.60;3.40;;;;;;;28.82;43.01;101286.66;5093906;28;20196;-76
2021/06/04 10:17:39;;;;;;;3.80;3.50;;;;;;;28.93;43.25;101281.47;5113447;28;20298;-76
2021/06/04 10:20:25;;;;;;;3.90;3.65;;;;;;;29.03;42.87;101284.66;5113290;28;20218;-76
2021/06/04 10:22:54;;;;;;;6.60;3.95;;;;;;;29.11;42.67;101289.16;5112828;28;20229;-76
2021/06/04 10:25:26;;;;;;;3.72;3.40;;;;;;;29.18;42.46;101283.72;5113817;28;20207;-77
2021/06/04 10:27:54;;;;;;;5.95;3.50;;;;;;;29.28;42.37;101281.41;5114356;28;20721;-77
2021/06/04 10:30:23;;;;;;;4.22;3.83;;;;;;;29.32;42.37;101280.81;5114184;28;20214;-77
2021/06/04 10:32:57;;;;;;;3.85;3.55;;;;;;;29.40;42.73;101282.53;5102954;28;20692;-77
2021/06/04 10:35:26;;;;;;;3.85;3.47;;;;;;;29.46;42.34;101278.16;5093687;28;20189;-77
2021/06/04 10:38:00;;;;;;;3.50;3.20;;;;;;;29.47;42.45;101283.44;5093763;28;20226;-76
2021/06/04 10:40:31;;;;;;;4.82;3.10;;;;;;;29.51;41.45;101289.38;5094148;28;20634;-78
2021/06/04 10:43:12;;;;;;;3.60;3.38;;;;;;;29.50;40.92;101287.66;5093737;28;20639;-77
2021/06/04 10:45:40;;;;;;;3.92;3.40;;;;;;;29.48;40.72;101295.25;5093976;28;20287;-77
2021/06/04 10:48:27;;;;;;;4.10;3.78;;;;;;;29.51;40.84;101290.22;5094632;28;20651;-78
2021/06/04 10:51:01;;;;;;;4.32;3.70;;;;;;;29.57;41.15;101305.00;5094849;28;20552;-77
2021/06/04 10:53:37;;;;;;;3.70;3.40;;;;;;;29.69;41.20;101284.16;5093867;28;20232;-77
2021/06/04 10:56:08;;;;;;;4.40;4.00;;;;;;;29.81;40.93;101289.88;5093305;28;20188;-77
2021/06/04 10:58:45;;;;;;;4.25;3.90;;;;;;;29.87;40.26;101287.16;5102977;28;20195;-77
2021/06/04 11:01:14;;;;;;;4.25;3.85;;;;;;;29.89;40.06;101290.53;5114154;28;20805;-78
2021/06/04 11:03:53;;;;;;;4.03;3.70;;;;;;;29.92;40.15;101284.59;5113774;28;20223;-76
2021/06/04 11:06:24;;;;;;;4.25;3.90;;;;;;;29.93;40.08;101271.72;5114227;28;20217;-78
2021/06/04 11:09:14;;;;;;;5.15;3.97;;;;;;;29.98;39.40;101277.47;5114566;28;20202;-80
2021/06/04 11:11:49;;;;;;;4.20;3.85;;;;;;;29.99;39.63;101277.25;5114146;28;20291;-80
2021/06/04 11:14:38;;;;;;;4.45;4.05;;;;;;;29.98;39.99;101275.56;5114230;28;20602;-77
2021/06/04 11:17:13;;;;;;;4.97;3.88;;;;;;;30.03;39.93;101273.03;5112678;28;20280;-76
2021/06/04 11:19:44;;;;;;;4.38;4.03;;;;;;;30.03;39.28;101272.19;5112528;28;20183;-76
2021/06/04 11:22:14;;;;;;;4.60;4.20;;;;;;;30.00;40.19;101264.38;5103724;28;20693;-76
2021/06/04 11:24:47;;;;;;;4.30;3.90;;;;;;;29.96;39.33;101272.16;5092192;28;20196;-79
2021/06/04 11:27:20;;;;;;;3.92;3.55;;;;;;;29.91;39.50;101262.88;5092408;28;20188;-76
2021/06/04 11:29:46;;;;;;;4.28;3.80;;;;;;;29.95;39.86;101258.63;5091856;28;20177;-76
2021/06/04 11:32:18;;;;;;;4.30;3.90;;;;;;;30.00;40.17;101261.63;5092279;28;20316;-77
2021/06/04 11:34:54;;;;;;;4.35;4.05;;;;;;;29.96;39.56;101266.66;5104993;28;20238;-76
2021/06/04 11:37:25;;;;;;;4.25;3.85;;;;;;;29.91;39.98;101268.34;5112563;28;20215;-76